createdAt,value
2022-12-01T00:01:32.206Z,100930.50
2022-12-01T00:04:00.334Z,100926.00
2022-12-01T00:06:28.448Z,100925.34
2022-12-01T00:09:19.692Z,100922.44
2022-12-01T00:11:49.064Z,100918.66
2022-12-01T00:14:17.604Z,100924.69
2022-12-01T00:16:47.360Z,100913.38
2022-12-01T00:19:15.799Z,100920.28
2022-12-01T00:21:43.941Z,100911.31
2022-12-01T00:24:12.823Z,100922.13
2022-12-01T00:26:41.039Z,100919.50
2022-12-01T00:29:09.133Z,100927.78
2022-12-01T00:31:37.623Z,100922.97
2022-12-01T00:34:11.336Z,100920.59
2022-12-01T00:36:40.566Z,100928.66
2022-12-01T00:39:11.040Z,100931.34
2022-12-01T00:41:38.916Z,100940.94
2022-12-01T00:44:07.042Z,100931.13
2022-12-01T00:46:35.064Z,100933.94
2022-12-01T00:49:03.030Z,100933.41
2022-12-01T00:51:32.953Z,100929.63
2022-12-01T00:54:00.899Z,100927.28
2022-12-01T00:56:28.834Z,100929.41
2022-12-01T00:58:56.811Z,100919.00
2022-12-01T01:01:24.983Z,100923.63
2022-12-01T01:03:53.132Z,100928.91
2022-12-01T01:06:21.083Z,100927.16
2022-12-01T01:08:50.547Z,100929.00
2022-12-01T01:11:18.824Z,100927.06
2022-12-01T01:13:46.828Z,100925.03
2022-12-01T01:16:16.669Z,100908.00
2022-12-01T01:18:44.722Z,100931.25
2022-12-01T01:21:16.013Z,100926.31
2022-12-01T01:23:44.258Z,100935.66
2022-12-01T01:26:16.654Z,100930.06
2022-12-01T01:28:45.843Z,100917.03
2022-12-01T01:31:16.668Z,100940.38
2022-12-01T01:33:45.256Z,100941.78
2022-12-01T01:36:14.337Z,100913.91
2022-12-01T01:38:42.924Z,100931.44
2022-12-01T01:41:11.671Z,100933.25
2022-12-01T01:43:43.497Z,100935.28
2022-12-01T01:46:12.974Z,100923.56
2022-12-01T01:48:43.218Z,100920.63
2022-12-01T01:51:14.204Z,100920.78
2022-12-01T01:53:43.889Z,100925.31
2022-12-01T01:56:12.159Z,100913.69
2022-12-01T01:58:42.643Z,100905.72
2022-12-01T02:01:10.682Z,100915.84
2022-12-01T02:03:41.177Z,100913.28
2022-12-01T02:06:10.487Z,100917.69
2022-12-01T02:08:38.638Z,100918.66
2022-12-01T02:11:24.474Z,100915.97
2022-12-01T02:14:05.894Z,100924.47
2022-12-01T02:16:42.314Z,100917.88
2022-12-01T02:19:31.789Z,100922.13
2022-12-01T02:22:09.227Z,100923.41
2022-12-01T02:25:07.122Z,100921.69
2022-12-01T02:27:55.362Z,100929.34
2022-12-01T02:30:35.124Z,100927.72
2022-12-01T02:33:08.576Z,100906.00
2022-12-01T02:35:46.133Z,100922.56
2022-12-01T02:38:23.456Z,100929.56
2022-12-01T02:40:58.622Z,100912.56
2022-12-01T02:43:33.599Z,100919.66
2022-12-01T02:46:09.863Z,100911.59
2022-12-01T02:48:41.108Z,100914.19
2022-12-01T02:51:13.855Z,100906.56
2022-12-01T02:53:42.283Z,100905.78
2022-12-01T02:56:16.042Z,100910.41
2022-12-01T02:58:44.175Z,100918.69
2022-12-01T03:01:30.403Z,100916.25
2022-12-01T03:04:10.076Z,100910.53
2022-12-01T03:06:49.297Z,100918.47
2022-12-01T03:09:27.220Z,100907.63
2022-12-01T03:12:06.609Z,100907.84
2022-12-01T03:14:41.595Z,100907.28
2022-12-01T03:17:17.658Z,100910.41
2022-12-01T03:19:49.926Z,100910.31
2022-12-01T03:22:24.867Z,100912.44
2022-12-01T03:24:56.419Z,100904.78
2022-12-01T03:27:30.996Z,100921.06
2022-12-01T03:30:02.258Z,100919.44
2022-12-01T03:32:38.250Z,100922.91
2022-12-01T03:35:10.981Z,100913.00
2022-12-01T03:37:44.462Z,100920.66
2022-12-01T03:40:17.983Z,100922.38
2022-12-01T03:42:49.307Z,100917.97
2022-12-01T03:45:19.046Z,100911.63
2022-12-01T03:47:48.675Z,100907.41
2022-12-01T03:50:18.654Z,100910.31
2022-12-01T03:52:53.391Z,100908.19
2022-12-01T03:55:25.946Z,100891.78
2022-12-01T03:57:57.991Z,100909.88
2022-12-01T04:00:26.960Z,100899.56
2022-12-01T04:02:58.189Z,100899.97
2022-12-01T04:05:27.466Z,100903.56
2022-12-01T04:07:55.505Z,100914.09
2022-12-01T04:10:23.557Z,100907.19
2022-12-01T04:12:50.663Z,100905.50
2022-12-01T04:15:18.991Z,100900.97
2022-12-01T04:17:46.966Z,100895.38
2022-12-01T04:20:17.734Z,100906.03
2022-12-01T04:22:45.754Z,100899.13
2022-12-01T04:25:13.734Z,100903.44
2022-12-01T04:27:41.979Z,100909.03
2022-12-01T04:30:11.082Z,100891.56
2022-12-01T04:32:40.868Z,100910.88
2022-12-01T04:35:10.478Z,100917.09
2022-12-01T04:37:40.332Z,100910.53
2022-12-01T04:40:09.793Z,100920.22
2022-12-01T04:42:37.743Z,100925.06
2022-12-01T04:45:06.159Z,100919.28
2022-12-01T04:47:34.108Z,100924.31
2022-12-01T04:50:02.075Z,100941.09
2022-12-01T04:52:35.028Z,100937.34
2022-12-01T04:55:05.207Z,100937.13
2022-12-01T04:57:33.166Z,100945.19
2022-12-01T05:00:01.073Z,100936.56
2022-12-01T05:02:29.260Z,100938.09
2022-12-01T05:04:57.318Z,100944.88
2022-12-01T05:07:25.272Z,100941.66
2022-12-01T05:09:55.116Z,100948.94
2022-12-01T05:12:24.810Z,100946.16
2022-12-01T05:14:52.832Z,100948.09
2022-12-01T05:17:20.781Z,100948.88
2022-12-01T05:20:06.190Z,100941.00
2022-12-01T05:23:03.817Z,100936.47
2022-12-01T05:25:22.194Z,100938.41
2022-12-01T05:27:51.593Z,100947.53
2022-12-01T05:30:22.017Z,100946.69
2022-12-01T05:32:52.351Z,100944.63
2022-12-01T05:35:20.313Z,100944.53
2022-12-01T05:37:48.259Z,100939.47
2022-12-01T05:40:16.212Z,100941.94
2022-12-01T05:42:44.299Z,100929.03
2022-12-01T05:45:13.724Z,100937.13
2022-12-01T05:47:41.699Z,100941.38
2022-12-01T05:50:10.355Z,100906.16
2022-12-01T05:52:38.555Z,100949.38
2022-12-01T05:55:07.846Z,100938.06
2022-12-01T05:57:35.577Z,100944.13
2022-12-01T06:00:04.013Z,100949.28
2022-12-01T06:02:40.757Z,100950.66
2022-12-01T06:05:09.940Z,100953.25
2022-12-01T06:07:40.241Z,100943.75
2022-12-01T06:10:10.042Z,100950.56
2022-12-01T06:12:38.536Z,100959.34
2022-12-01T06:15:08.325Z,100949.31
2022-12-01T06:17:40.266Z,100952.78
2022-12-01T06:20:12.031Z,100950.09
2022-12-01T06:22:40.246Z,100947.59
2022-12-01T06:25:09.326Z,100953.75
2022-12-01T06:27:37.386Z,100962.75
2022-12-01T06:30:06.568Z,100947.53
2022-12-01T06:32:34.626Z,100958.94
2022-12-01T06:35:02.634Z,100955.78
2022-12-01T06:37:32.026Z,100961.50
2022-12-01T06:40:00.034Z,100967.06
2022-12-01T06:42:30.690Z,100958.72
2022-12-01T06:44:58.694Z,100958.94
2022-12-01T06:47:26.651Z,100957.72
2022-12-01T06:49:54.573Z,100974.84
2022-12-01T06:52:22.582Z,100984.88
2022-12-01T06:54:51.902Z,100974.13
2022-12-01T06:57:20.283Z,100983.81
2022-12-01T06:59:49.200Z,100975.75
2022-12-01T07:02:17.746Z,100979.16
2022-12-01T07:04:45.789Z,100977.66
2022-12-01T07:07:13.749Z,100983.31
2022-12-01T07:09:41.828Z,100987.94
2022-12-01T07:12:11.146Z,100980.09
2022-12-01T07:14:38.983Z,100976.97
2022-12-01T07:17:06.957Z,100985.72
2022-12-01T07:19:34.955Z,100986.34
2022-12-01T07:22:03.226Z,100974.75
2022-12-01T07:24:31.475Z,100977.66
2022-12-01T07:26:59.477Z,100971.75
2022-12-01T07:29:28.802Z,100984.44
2022-12-01T07:31:56.765Z,100985.31
2022-12-01T07:34:24.663Z,100981.22
2022-12-01T07:36:52.608Z,100977.97
2022-12-01T07:39:20.575Z,100966.88
2022-12-01T07:41:48.814Z,100980.25
2022-12-01T07:44:16.946Z,100983.69
2022-12-01T07:46:46.257Z,100987.66
2022-12-01T07:49:15.576Z,100993.81
2022-12-01T07:51:43.658Z,100992.97
2022-12-01T07:54:14.254Z,100986.81
2022-12-01T07:56:42.323Z,100987.13
2022-12-01T07:59:10.538Z,100987.25
2022-12-01T08:01:44.055Z,100987.25
2022-12-01T08:04:14.119Z,100988.97
2022-12-01T08:06:42.065Z,100985.41
2022-12-01T08:09:10.172Z,100988.97
2022-12-01T08:11:38.156Z,100984.75
2022-12-01T08:14:06.129Z,100986.16
2022-12-01T08:16:34.058Z,100986.72
2022-12-01T08:19:02.016Z,100980.44
2022-12-01T08:21:31.330Z,100985.94
2022-12-01T08:23:59.419Z,100992.16
2022-12-01T08:26:27.996Z,100986.81
2022-12-01T08:28:56.027Z,100988.19
2022-12-01T08:31:26.154Z,100990.22
2022-12-01T08:33:57.227Z,100988.28
2022-12-01T08:36:25.912Z,100984.94
2022-12-01T08:38:56.313Z,100989.38
2022-12-01T08:41:25.317Z,100985.47
2022-12-01T08:43:58.496Z,100996.03
2022-12-01T08:46:27.601Z,100992.06
2022-12-01T08:48:57.722Z,100993.16
2022-12-01T08:51:26.947Z,100996.69
2022-12-01T08:53:58.131Z,101004.69
2022-12-01T08:56:28.424Z,100980.97
2022-12-01T08:58:57.216Z,100996.28
2022-12-01T09:01:26.017Z,100998.00
2022-12-01T09:04:05.896Z,101002.13
2022-12-01T09:06:35.454Z,101001.22
2022-12-01T09:09:05.389Z,100998.84
2022-12-01T09:11:33.415Z,101002.00
2022-12-01T09:14:10.497Z,101007.03
2022-12-01T09:16:38.659Z,101006.56
2022-12-01T09:19:06.700Z,100998.41
2022-12-01T09:21:37.031Z,100988.59
2022-12-01T09:24:07.647Z,100992.38
2022-12-01T09:26:35.855Z,100996.38
2022-12-01T09:29:06.342Z,100989.63
2022-12-01T09:31:34.502Z,100988.69
2022-12-01T09:34:03.770Z,101001.72
2022-12-01T09:36:32.085Z,100998.06
2022-12-01T09:39:00.263Z,100947.78
2022-12-01T09:41:33.952Z,100991.06
2022-12-01T09:44:10.628Z,100987.56
2022-12-01T09:46:45.536Z,100990.47
2022-12-01T09:49:20.250Z,100982.91
2022-12-01T09:51:48.211Z,100981.75
2022-12-01T09:54:16.642Z,100977.31
2022-12-01T09:56:49.527Z,100980.72
2022-12-01T09:59:23.689Z,100974.28
2022-12-01T10:01:56.693Z,100975.94
2022-12-01T10:04:29.164Z,100981.03
2022-12-01T10:07:02.524Z,100972.94
2022-12-01T10:09:36.461Z,100970.66
2022-12-01T10:12:14.812Z,100969.38
2022-12-01T10:14:45.157Z,100958.88
2022-12-01T10:17:22.814Z,100968.44
2022-12-01T10:19:57.540Z,100967.38
2022-12-01T10:22:53.494Z,100959.66
2022-12-01T10:25:24.019Z,100968.91
2022-12-01T10:28:08.604Z,100964.81
2022-12-01T10:30:40.577Z,100965.44
2022-12-01T10:33:18.866Z,100968.50
2022-12-01T10:35:47.070Z,100965.25
2022-12-01T10:38:23.735Z,100971.50
2022-12-01T10:40:53.456Z,100966.53
2022-12-01T10:43:30.904Z,100960.00
2022-12-01T10:46:01.395Z,100961.16
2022-12-01T10:48:29.451Z,100972.38
2022-12-01T10:51:04.810Z,100969.13
2022-12-01T10:53:36.555Z,100967.50
2022-12-01T10:56:09.978Z,100976.34
2022-12-01T10:58:47.886Z,100975.28
2022-12-01T11:01:25.929Z,100968.25
2022-12-01T11:04:03.141Z,100974.00
2022-12-01T11:06:32.641Z,100980.34
2022-12-01T11:09:02.840Z,100966.56
2022-12-01T11:11:37.767Z,100969.28
2022-12-01T11:14:18.231Z,100965.81
2022-12-01T11:16:47.866Z,100975.50
2022-12-01T11:19:38.767Z,100971.50
2022-12-01T11:22:26.706Z,100973.00
2022-12-01T11:25:07.989Z,100967.88
2022-12-01T11:27:57.581Z,100969.81
2022-12-01T11:30:34.500Z,100965.41
2022-12-01T11:33:18.612Z,100962.25
2022-12-01T11:36:00.868Z,100965.50
2022-12-01T11:38:34.698Z,100958.81
2022-12-01T11:41:35.132Z,100964.41
2022-12-01T11:44:22.526Z,100954.53
2022-12-01T11:47:21.517Z,100963.31
2022-12-01T11:49:57.326Z,100954.72
2022-12-01T11:52:36.361Z,100971.28
2022-12-01T11:55:22.917Z,100960.13
2022-12-01T11:57:53.166Z,100964.22
2022-12-01T12:00:23.797Z,100969.16
2022-12-01T12:03:26.610Z,100971.50
2022-12-01T12:06:38.872Z,100970.44
2022-12-01T12:09:15.532Z,100971.94
2022-12-01T12:11:51.186Z,100967.84
2022-12-01T12:14:32.696Z,100971.75
2022-12-01T12:17:16.695Z,100975.63
2022-12-01T12:20:21.995Z,100974.00
2022-12-01T12:23:02.112Z,100975.50
2022-12-01T12:25:42.770Z,100971.72
2022-12-01T12:28:25.268Z,100965.91
2022-12-01T12:31:02.231Z,100967.19
2022-12-01T12:33:44.019Z,100965.91
2022-12-01T12:36:22.736Z,100970.56
2022-12-01T12:39:03.738Z,100976.03
2022-12-01T12:41:37.520Z,100967.53
2022-12-01T12:44:30.021Z,100968.94
2022-12-01T12:47:11.463Z,100980.47
2022-12-01T12:49:47.227Z,100970.66
2022-12-01T12:52:19.805Z,100978.31
2022-12-01T12:54:53.512Z,100976.25
2022-12-01T12:57:28.964Z,100971.75
2022-12-01T13:00:02.152Z,100976.34
2022-12-01T13:02:39.312Z,100978.19
2022-12-01T13:05:11.496Z,100975.28
2022-12-01T13:07:45.986Z,100967.63
2022-12-01T13:10:23.228Z,100969.56
2022-12-01T13:12:58.827Z,100991.19
2022-12-01T13:15:28.574Z,100985.06
2022-12-01T13:18:02.305Z,100977.66
2022-12-01T13:20:32.346Z,100987.22
2022-12-01T13:23:03.195Z,100973.13
2022-12-01T13:25:34.212Z,100986.09
2022-12-01T13:28:05.427Z,100977.81
2022-12-01T13:30:33.474Z,100981.41
2022-12-01T13:33:03.660Z,100975.47
2022-12-01T13:35:34.299Z,100970.09
2022-12-01T13:38:26.117Z,100973.53
2022-12-01T13:41:12.539Z,100971.59
2022-12-01T13:43:53.330Z,100983.97
2022-12-01T13:46:27.229Z,100980.00
2022-12-01T13:48:57.797Z,100968.50
2022-12-01T13:51:26.324Z,100980.75
2022-12-01T13:54:03.000Z,100978.94
2022-12-01T13:56:47.732Z,100976.41
2022-12-01T13:59:41.908Z,100966.94
2022-12-01T14:02:21.740Z,100961.03
2022-12-01T14:04:50.174Z,100967.59
2022-12-01T14:07:36.920Z,100965.88
2022-12-01T14:10:32.547Z,100963.59
2022-12-01T14:13:05.025Z,100956.72
2022-12-01T14:15:40.276Z,100971.03
2022-12-01T14:18:22.183Z,100971.56
2022-12-01T14:20:50.666Z,100951.44
2022-12-01T14:23:25.285Z,100967.06
2022-12-01T14:26:11.633Z,100966.53
2022-12-01T14:29:25.471Z,100964.16
2022-12-01T14:32:21.743Z,100961.69
2022-12-01T14:35:06.722Z,100963.19
2022-12-01T14:37:43.654Z,100963.50
2022-12-01T14:40:22.147Z,100952.41
2022-12-01T14:43:12.713Z,100972.78
2022-12-01T14:45:47.242Z,100964.78
2022-12-01T14:48:18.224Z,100963.09
2022-12-01T14:50:50.455Z,100963.63
2022-12-01T14:53:28.326Z,100969.31
2022-12-01T14:55:58.355Z,100971.25
2022-12-01T14:58:29.946Z,100974.50
2022-12-01T15:01:03.439Z,100972.78
2022-12-01T15:03:36.651Z,100973.63
2022-12-01T15:06:05.109Z,100980.28
2022-12-01T15:09:10.724Z,100976.97
2022-12-01T15:11:25.593Z,100984.25
2022-12-01T15:13:56.984Z,100973.81
2022-12-01T15:16:26.948Z,100980.94
2022-12-01T15:18:55.033Z,100981.28
2022-12-01T15:21:25.632Z,100980.50
2022-12-01T15:23:55.282Z,100982.75
2022-12-01T15:26:25.384Z,100984.25
2022-12-01T15:29:08.090Z,100970.25
2022-12-01T15:31:36.628Z,100890.16
2022-12-01T15:34:05.164Z,100978.66
2022-12-01T15:36:33.231Z,100977.88
2022-12-01T15:39:06.881Z,100977.88
2022-12-01T15:41:40.138Z,100969.56
2022-12-01T15:44:21.024Z,100947.38
2022-12-01T15:46:49.449Z,100966.78
2022-12-01T15:49:20.615Z,100969.38
2022-12-01T15:51:50.681Z,100973.44
2022-12-01T15:54:22.317Z,100972.00
2022-12-01T15:56:54.942Z,100979.09
2022-12-01T15:59:32.139Z,100962.59
2022-12-01T16:02:01.281Z,100970.81
2022-12-01T16:04:32.353Z,100976.78
2022-12-01T16:07:02.710Z,100971.72
2022-12-01T16:09:35.468Z,100974.63
2022-12-01T16:12:20.316Z,100975.13
2022-12-01T16:14:58.000Z,100983.13
2022-12-01T16:17:27.639Z,100989.66
2022-12-01T16:20:25.108Z,100981.41
2022-12-01T16:22:59.006Z,100989.50
2022-12-01T16:25:39.289Z,100974.94
2022-12-01T16:28:08.729Z,100978.75
2022-12-01T16:30:39.904Z,100978.75
2022-12-01T16:33:16.203Z,100978.22
2022-12-01T16:35:44.622Z,100983.94
2022-12-01T16:38:16.270Z,100979.31
2022-12-01T16:40:44.589Z,100984.59
2022-12-01T16:43:15.958Z,100984.03
2022-12-01T16:45:46.932Z,100984.69
2022-12-01T16:48:19.336Z,100979.44
2022-12-01T16:50:48.379Z,100982.69
2022-12-01T16:53:16.403Z,100981.25
2022-12-01T16:55:48.516Z,100976.06
2022-12-01T16:58:16.646Z,100969.81
2022-12-01T17:00:52.383Z,100984.69
2022-12-01T17:03:22.033Z,100984.59
2022-12-01T17:05:50.746Z,100989.31
2022-12-01T17:08:19.539Z,100985.88
2022-12-01T17:10:50.323Z,100980.13
2022-12-01T17:13:19.861Z,100996.41
2022-12-01T17:15:51.628Z,100999.19
2022-12-01T17:18:21.313Z,100999.56
2022-12-01T17:20:58.297Z,100999.31
2022-12-01T17:23:26.667Z,100999.03
2022-12-01T17:25:54.824Z,101010.34
2022-12-01T17:28:23.277Z,101011.53
2022-12-01T17:30:52.856Z,101013.44
2022-12-01T17:33:20.894Z,101008.63
2022-12-01T17:35:49.908Z,101018.75
2022-12-01T17:38:17.890Z,101014.91
2022-12-01T17:40:45.816Z,101020.28
2022-12-01T17:43:13.967Z,101020.88
2022-12-01T17:45:43.847Z,101017.22
2022-12-01T17:48:13.177Z,101018.19
2022-12-01T17:50:40.958Z,101024.31
2022-12-01T17:53:08.973Z,101020.50
2022-12-01T17:55:40.220Z,101023.56
2022-12-01T17:58:08.248Z,101029.69
2022-12-01T18:00:36.257Z,101026.66
2022-12-01T18:03:04.477Z,101000.69
2022-12-01T18:05:34.018Z,101033.75
2022-12-01T18:08:02.171Z,101027.59
2022-12-01T18:10:30.177Z,101032.03
2022-12-01T18:12:58.153Z,101024.25
2022-12-01T18:15:31.813Z,101025.31
2022-12-01T18:18:02.571Z,101019.47
2022-12-01T18:20:30.602Z,101025.59
2022-12-01T18:22:59.937Z,101023.41
2022-12-01T18:25:27.671Z,101020.03
2022-12-01T18:27:58.687Z,101019.38
2022-12-01T18:30:26.707Z,101017.84
2022-12-01T18:32:54.648Z,101022.38
2022-12-01T18:35:25.283Z,101018.78
2022-12-01T18:37:56.834Z,101025.97
2022-12-01T18:40:28.846Z,101023.50
2022-12-01T18:42:56.569Z,101023.41
2022-12-01T18:45:24.540Z,101020.34
2022-12-01T18:47:52.753Z,101024.34
2022-12-01T18:50:20.735Z,101031.75
2022-12-01T18:52:48.730Z,101023.91
2022-12-01T18:55:16.740Z,101031.66
2022-12-01T18:57:46.084Z,101018.31
2022-12-01T19:00:14.502Z,101023.97
2022-12-01T19:02:42.645Z,101029.84
2022-12-01T19:05:11.098Z,101034.91
2022-12-01T19:07:39.118Z,101028.09
2022-12-01T19:10:08.195Z,101026.50
2022-12-01T19:12:40.764Z,101036.06
2022-12-01T19:15:11.876Z,101036.94
2022-12-01T19:17:40.083Z,101041.06
2022-12-01T19:20:09.372Z,101038.47
2022-12-01T19:22:37.743Z,101035.69
2022-12-01T19:25:06.583Z,101035.88
2022-12-01T19:27:35.517Z,101034.91
2022-12-01T19:30:03.432Z,101040.00
2022-12-01T19:32:33.579Z,101038.16
2022-12-01T19:35:01.607Z,101043.47
2022-12-01T19:37:30.849Z,101047.84
2022-12-01T19:39:58.826Z,101044.19
2022-12-01T19:42:26.775Z,101053.22
2022-12-01T19:44:55.806Z,101047.78
2022-12-01T19:47:23.875Z,101043.84
2022-12-01T19:49:53.204Z,101048.06
2022-12-01T19:52:20.953Z,101044.59
2022-12-01T19:54:49.158Z,101051.72
2022-12-01T19:57:17.466Z,101051.50
2022-12-01T19:59:45.445Z,101049.03
2022-12-01T20:02:13.693Z,101054.69
2022-12-01T20:04:41.636Z,101058.03
2022-12-01T20:07:10.991Z,101058.72
2022-12-01T20:09:38.913Z,101052.56
2022-12-01T20:12:07.284Z,101057.38
2022-12-01T20:14:35.190Z,101065.22
2022-12-01T20:17:03.305Z,101058.81
2022-12-01T20:19:31.424Z,101056.97
2022-12-01T20:21:59.474Z,101067.84
2022-12-01T20:24:28.882Z,101065.03
2022-12-01T20:26:57.639Z,101062.47
2022-12-01T20:29:27.521Z,101071.97
2022-12-01T20:31:57.175Z,101068.97
2022-12-01T20:34:27.863Z,101069.16
2022-12-01T20:36:57.202Z,101072.03
2022-12-01T20:39:24.999Z,101065.41
2022-12-01T20:41:54.473Z,101066.59
2022-12-01T20:44:22.655Z,101076.25
2022-12-01T20:46:50.651Z,101073.88
2022-12-01T20:49:19.914Z,101076.16
2022-12-01T20:51:48.418Z,101078.66
2022-12-01T20:54:33.224Z,101078.06
2022-12-01T20:57:02.632Z,101079.25
2022-12-01T20:59:31.826Z,101065.91
2022-12-01T21:01:59.897Z,101073.69
2022-12-01T21:04:27.926Z,101065.16
2022-12-01T21:06:56.949Z,101073.00
2022-12-01T21:09:25.165Z,101066.94
2022-12-01T21:12:10.707Z,101064.75
2022-12-01T21:14:43.748Z,101067.63
2022-12-01T21:17:23.022Z,101073.69
2022-12-01T21:19:53.309Z,101073.47
2022-12-01T21:22:21.329Z,101067.13
2022-12-01T21:24:51.987Z,101060.63
2022-12-01T21:27:20.105Z,101055.66
2022-12-01T21:29:51.011Z,101064.56
2022-12-01T21:32:20.838Z,101058.34
2022-12-01T21:34:49.717Z,101059.06
2022-12-01T21:37:23.255Z,101043.94
2022-12-01T21:39:53.136Z,101059.47
2022-12-01T21:42:23.036Z,101062.81
2022-12-01T21:44:52.677Z,101056.97
2022-12-01T21:47:23.275Z,101058.03
2022-12-01T21:49:54.018Z,101054.47
2022-12-01T21:52:25.048Z,101055.06
2022-12-01T21:54:53.227Z,101059.59
2022-12-01T21:57:42.364Z,101060.63
2022-12-01T22:00:30.390Z,101060.63
2022-12-01T22:03:18.095Z,101056.91
2022-12-01T22:06:07.213Z,101057.38
2022-12-01T22:08:39.286Z,101057.28
2022-12-01T22:11:13.886Z,101063.72
2022-12-01T22:13:44.136Z,101048.91
2022-12-01T22:16:20.619Z,101060.81
2022-12-01T22:18:52.150Z,101066.59
2022-12-01T22:21:45.420Z,101057.09
2022-12-01T22:24:22.938Z,101057.94
2022-12-01T22:26:54.139Z,101054.28
2022-12-01T22:29:28.519Z,101058.22
2022-12-01T22:32:25.777Z,101050.09
2022-12-01T22:34:57.497Z,101052.84
2022-12-01T22:37:35.344Z,101047.19
2022-12-01T22:40:23.552Z,101040.59
2022-12-01T22:42:51.564Z,101051.81
2022-12-01T22:45:24.023Z,101044.91
2022-12-01T22:48:01.824Z,101036.34
2022-12-01T22:50:32.182Z,101047.78
2022-12-01T22:53:02.996Z,101036.06
2022-12-01T22:55:31.084Z,101035.41
2022-12-01T22:57:59.216Z,101023.97
2022-12-01T23:00:27.757Z,101027.63
2022-12-01T23:02:57.453Z,101035.03
2022-12-01T23:05:27.762Z,101031.16
2022-12-01T23:07:57.128Z,101035.28
2022-12-01T23:10:27.064Z,101025.59
2022-12-01T23:12:56.326Z,101029.34
2022-12-01T23:15:31.415Z,101033.09
2022-12-01T23:18:10.653Z,101035.75
2022-12-01T23:20:40.059Z,101037.41
2022-12-01T23:23:11.836Z,101038.66
2022-12-01T23:25:41.995Z,101029.66
2022-12-01T23:28:11.215Z,101033.97
2022-12-01T23:30:40.566Z,101036.66
2022-12-01T23:33:15.477Z,101038.75
2022-12-01T23:35:48.578Z,101028.03
2022-12-01T23:38:19.678Z,101034.63
2022-12-01T23:40:48.728Z,101028.03
2022-12-01T23:43:22.313Z,101033.19
2022-12-01T23:45:53.427Z,101027.75
2022-12-01T23:48:24.356Z,101035.28
2022-12-01T23:50:55.093Z,101024.16
2022-12-01T23:53:27.986Z,101022.44
2022-12-01T23:55:57.477Z,101020.53
2022-12-01T23:58:38.539Z,101037.78
